Hovedside
METAR-TAF:

METAR-TAF

Lufthavner :

Harare internasjonale lufthavn

Harare, Zimbabwe

breddegrad: 17-55S, lengdegrad: 031-08E, høyde over havet: 1479 m

Gjeldene værobservasjon

Denne rapporten ble laget for 57 minutter siden, klokken 15:00 UTC
Vind 3 kt fra Sør-sørvest, skiftende mellom Sør og Vest-sørvest
Temperatur 22°C
Luftfuktighet 33%
Trykk 1024 hPa
Sikt 10 km eller mer
ingen skyer under 1500 m og ingen bygeskyer

METAR: FVHA 191500Z 21003KT 170V240 CAVOK 22/05 Q1024 NOSIG

Tid: 17:57 (15:57 UTC)

Varsel

Denne rapporten ble laget for 11 timer og 57 minutter siden, klokken 04:00 UTC
Varsel gyldig fra 19. klokken 06 UTC til 20. klokken 12 UTC
Vind 3 kt fra Øst-nordøst
Sikt 10 km eller mer
ingen skyer under 1500 m og ingen bygeskyer

TAF: FVHA 190400Z 1906/2012 07003KT CAVOK

Værobservasjoner og værvarsel for over 4000 flyplasser (METAR- og TAF-rapporter).

Tilgjengelige stasjoner er representert av de røde og gule prikkene på kartet.

Hold musepekeren over prikken for å se navnet på stasjonen.

Klikk så for å se værobservasjoner og -varsler.

For å forandre kartet kan du klikke på den grønne knappen med svart kryss for å zoome inn, på den grønne knappen med strek for å zoome ut, eller på de grønne pilene for å se tilstøtende kart.


METAR-TAF: